Time;durP1;ratioP1;P1;durP2;ratioP2;P2;SDS_P1;SDS_P2;PMS_P1;PMS_P2;Temp;Humidity;BMP_temperature;BMP_pressure;BME280_temperature;BME280_humidity;BME280_pressure;Samples;Min_cycle;Max_cycle;Signal;HPM_P1;HPM_P2
2023/12/01 00:01:34;;;;;;;5.32;4.82;;;;;;;;;;5001164;28;20582;-61
2023/12/01 00:04:01;;;;;;;5.57;5.03;;;;;;;;;;5001072;28;20211;-61
2023/12/01 00:06:28;;;;;;;6.18;5.57;;;;;;;;;;5001231;28;20211;-61
2023/12/01 00:08:55;;;;;;;5.40;4.90;;;;;;;;;;5001114;28;20211;-61
2023/12/01 00:11:23;;;;;;;5.32;4.82;;;;;;;;;;5000984;28;20277;-61
2023/12/01 00:13:51;;;;;;;5.40;4.90;;;;;;;;;;5001076;28;20207;-61
2023/12/01 00:16:19;;;;;;;5.63;5.10;;;;;;;;;;5001042;28;20207;-61
2023/12/01 00:18:46;;;;;;;5.25;4.75;;;;;;;;;;5000868;28;20230;-61
2023/12/01 00:21:13;;;;;;;5.28;4.78;;;;;;;;;;5000927;28;20202;-61
2023/12/01 00:23:41;;;;;;;5.38;4.88;;;;;;;;;;5000829;28;20602;-61
2023/12/01 00:26:08;;;;;;;5.40;4.78;;;;;;;;;;5000876;28;20207;-61
2023/12/01 00:28:36;;;;;;;5.22;4.72;;;;;;;;;;5001276;28;20492;-61
2023/12/01 00:31:05;;;;;;;5.20;4.70;;;;;;;;;;5000591;28;20203;-61
2023/12/01 00:33:32;;;;;;;5.55;4.95;;;;;;;;;;5000761;28;20211;-61
2023/12/01 00:36:00;;;;;;;5.30;4.80;;;;;;;;;;5000390;28;20214;-61
2023/12/01 00:38:28;;;;;;;5.47;4.97;;;;;;;;;;5000118;28;20238;-61
2023/12/01 00:40:55;;;;;;;5.65;5.15;;;;;;;;;;5000365;28;20238;-61
2023/12/01 00:43:23;;;;;;;5.40;4.90;;;;;;;;;;5000683;28;20496;-61
2023/12/01 00:45:50;;;;;;;6.03;5.40;;;;;;;;;;5000664;28;20214;-61
2023/12/01 00:48:19;;;;;;;5.18;4.68;;;;;;;;;;5000588;28;20215;-61
2023/12/01 00:50:46;;;;;;;5.65;5.07;;;;;;;;;;5000352;28;20203;-61
2023/12/01 00:53:14;;;;;;;5.80;5.20;;;;;;;;;;5000090;28;20207;-61
2023/12/01 00:55:41;;;;;;;5.60;4.88;;;;;;;;;;5000470;28;20289;-61
2023/12/01 00:58:08;;;;;;;5.72;5.15;;;;;;;;;;5000424;28;20222;-61
2023/12/01 01:00:36;;;;;;;5.07;4.57;;;;;;;;;;5000396;28;20231;-61
2023/12/01 01:03:03;;;;;;;5.38;4.88;;;;;;;;;;5000040;28;20257;-61
2023/12/01 01:05:32;;;;;;;5.40;4.65;;;;;;;;;;5000229;28;20206;-61
2023/12/01 01:08:00;;;;;;;5.57;5.07;;;;;;;;;;4999762;28;20517;-61
2023/12/01 01:10:28;;;;;;;5.32;4.82;;;;;;;;;;4999912;28;20203;-61
2023/12/01 01:12:55;;;;;;;5.80;5.30;;;;;;;;;;4999906;28;20206;-61
2023/12/01 01:15:23;;;;;;;5.05;4.55;;;;;;;;;;5000205;28;20219;-61
2023/12/01 01:17:50;;;;;;;5.03;4.63;;;;;;;;;;4999590;28;20289;-61
2023/12/01 01:20:18;;;;;;;5.40;4.90;;;;;;;;;;4999545;28;20273;-61
2023/12/01 01:22:47;;;;;;;4.85;4.45;;;;;;;;;;4999733;28;20695;-61
2023/12/01 01:25:14;;;;;;;5.22;4.65;;;;;;;;;;4999653;28;20509;-61
2023/12/01 01:27:41;;;;;;;5.28;4.78;;;;;;;;;;4999367;28;20599;-61
2023/12/01 01:30:09;;;;;;;5.50;5.00;;;;;;;;;;4999502;28;20203;-61
2023/12/01 01:32:36;;;;;;;5.32;4.82;;;;;;;;;;4999333;28;20218;-61
2023/12/01 01:35:04;;;;;;;5.45;4.95;;;;;;;;;;4999709;28;20211;-61
2023/12/01 01:37:32;;;;;;;5.50;5.00;;;;;;;;;;4999204;28;20274;-61
2023/12/01 01:40:00;;;;;;;5.75;5.00;;;;;;;;;;4999547;28;20545;-61
2023/12/01 01:42:28;;;;;;;5.82;5.32;;;;;;;;;;4999740;28;20207;-61
2023/12/01 01:44:55;;;;;;;5.95;5.35;;;;;;;;;;4999297;28;20214;-61
2023/12/01 01:47:22;;;;;;;5.20;4.70;;;;;;;;;;4999126;28;20218;-61
2023/12/01 01:49:50;;;;;;;5.07;4.57;;;;;;;;;;4998646;28;20215;-61
2023/12/01 01:52:17;;;;;;;5.45;4.95;;;;;;;;;;4999050;28;20284;-61
2023/12/01 01:54:45;;;;;;;5.93;5.32;;;;;;;;;;4999571;28;20229;-61
2023/12/01 01:57:14;;;;;;;5.60;5.00;;;;;;;;;;4999549;28;20211;-61
2023/12/01 01:59:41;;;;;;;5.38;4.88;;;;;;;;;;4999218;28;20238;-61
2023/12/01 02:02:08;;;;;;;5.13;4.65;;;;;;;;;;4998847;28;20217;-61
2023/12/01 02:04:36;;;;;;;5.25;4.75;;;;;;;;;;4998947;28;20214;-61
2023/12/01 02:07:03;;;;;;;5.68;5.13;;;;;;;;;;4998804;28;20211;-61
2023/12/01 02:09:33;;;;;;;5.57;5.07;;;;;;;;;;4998944;28;20207;-61
2023/12/01 02:12:00;;;;;;;6.07;5.47;;;;;;;;;;4998933;28;20207;-61
2023/12/01 02:14:29;;;;;;;5.90;5.30;;;;;;;;;;4998809;28;20231;-61
2023/12/01 02:16:57;;;;;;;5.47;4.97;;;;;;;;;;4998870;28;20207;-61
2023/12/01 02:19:24;;;;;;;5.60;5.10;;;;;;;;;;4998544;28;20218;-61
2023/12/01 02:21:54;;;;;;;5.45;5.03;;;;;;;;;;4998511;28;20599;-61
2023/12/01 02:24:21;;;;;;;5.53;5.03;;;;;;;;;;4998948;28;20546;-61
2023/12/01 02:26:48;;;;;;;6.03;5.53;;;;;;;;;;4998558;28;20230;-61
2023/12/01 02:29:16;;;;;;;5.55;5.00;;;;;;;;;;4998720;28;20218;-61
2023/12/01 02:31:43;;;;;;;5.63;5.13;;;;;;;;;;4998753;28;20203;-61
2023/12/01 02:34:11;;;;;;;5.72;5.20;;;;;;;;;;4998271;28;20211;-61
2023/12/01 02:36:38;;;;;;;5.20;4.57;;;;;;;;;;5003490;28;20242;-61
2023/12/01 02:39:07;;;;;;;5.30;4.78;;;;;;;;;;5018012;28;20218;-61
2023/12/01 02:41:35;;;;;;;5.50;5.00;;;;;;;;;;5018011;28;20261;-61
2023/12/01 02:44:03;;;;;;;5.47;4.97;;;;;;;;;;5017838;28;20488;-61
2023/12/01 02:46:31;;;;;;;6.20;5.60;;;;;;;;;;5017720;28;20206;-61
2023/12/01 02:48:58;;;;;;;5.55;4.90;;;;;;;;;;5017964;28;20582;-61
2023/12/01 02:51:25;;;;;;;5.50;5.00;;;;;;;;;;5017671;28;20550;-61
2023/12/01 02:53:52;;;;;;;6.15;5.57;;;;;;;;;;5017964;28;20206;-61
2023/12/01 02:56:21;;;;;;;5.60;5.07;;;;;;;;;;5017897;28;20251;-61
2023/12/01 02:58:49;;;;;;;5.60;5.10;;;;;;;;;;5017748;28;20228;-61
2023/12/01 03:01:17;;;;;;;5.70;5.20;;;;;;;;;;5017336;28;20233;-61
2023/12/01 03:03:44;;;;;;;5.90;5.30;;;;;;;;;;5017532;28;20268;-61
2023/12/01 03:06:11;;;;;;;5.50;5.00;;;;;;;;;;5017365;28;20598;-61
2023/12/01 03:08:39;;;;;;;5.70;5.20;;;;;;;;;;5017710;28;20217;-61
2023/12/01 03:11:06;;;;;;;6.05;5.45;;;;;;;;;;5017529;28;20210;-61
2023/12/01 03:13:36;;;;;;;5.50;5.00;;;;;;;;;;5017317;28;20206;-61
2023/12/01 03:16:03;;;;;;;6.05;5.45;;;;;;;;;;5017700;28;20217;-61
2023/12/01 03:18:31;;;;;;;6.20;5.60;;;;;;;;;;5017684;28;20213;-61
2023/12/01 03:20:58;;;;;;;6.20;5.60;;;;;;;;;;5017528;28;20230;-61
2023/12/01 03:23:25;;;;;;;5.53;5.03;;;;;;;;;;5017270;28;20218;-61
2023/12/01 03:25:53;;;;;;;5.80;5.20;;;;;;;;;;5017307;28;20475;-61
2023/12/01 03:28:20;;;;;;;6.05;5.53;;;;;;;;;;5017475;28;20485;-61
2023/12/01 03:30:49;;;;;;;5.28;4.82;;;;;;;;;;5017603;28;20194;-61
2023/12/01 03:33:16;;;;;;;5.45;4.95;;;;;;;;;;5017655;28;20225;-61
2023/12/01 03:35:43;;;;;;;5.75;5.25;;;;;;;;;;5017156;28;20501;-61
2023/12/01 03:38:11;;;;;;;5.30;4.80;;;;;;;;;;5017193;28;20261;-61
2023/12/01 03:40:39;;;;;;;5.80;5.20;;;;;;;;;;5017302;28;20241;-61
2023/12/01 03:43:06;;;;;;;5.50;5.00;;;;;;;;;;5017155;28;20665;-61
2023/12/01 03:45:34;;;;;;;5.50;5.00;;;;;;;;;;5017310;28;20301;-61
2023/12/01 03:48:02;;;;;;;5.75;5.25;;;;;;;;;;5017049;28;20598;-61
2023/12/01 03:50:30;;;;;;;5.45;4.95;;;;;;;;;;5017102;28;20210;-61
2023/12/01 03:52:57;;;;;;;5.20;4.78;;;;;;;;;;5017290;28;20206;-61
2023/12/01 03:55:25;;;;;;;5.95;5.35;;;;;;;;;;5017096;28;20618;-61
2023/12/01 03:57:52;;;;;;;5.65;5.15;;;;;;;;;;5016990;28;20214;-61
2023/12/01 04:00:22;;;;;;;5.93;5.43;;;;;;;;;;5016889;28;20240;-61
2023/12/01 04:02:49;;;;;;;5.85;5.35;;;;;;;;;;5016640;28;20217;-61
2023/12/01 04:05:18;;;;;;;6.05;5.40;;;;;;;;;;5017327;28;20541;-61
2023/12/01 04:07:50;;;;;;;5.90;5.40;;;;;;;;;;5016990;28;20206;-61
2023/12/01 04:10:17;;;;;;;5.80;5.20;;;;;;;;;;5016663;28;20229;-61
2023/12/01 04:12:45;;;;;;;6.05;5.45;;;;;;;;;;5016682;28;20207;-61
2023/12/01 04:15:16;;;;;;;5.38;4.88;;;;;;;;;;5019823;28;20509;-61
2023/12/01 04:17:44;;;;;;;5.85;5.32;;;;;;;;;;5020327;28;20583;-61
2023/12/01 04:20:20;;;;;;;5.68;5.18;;;;;;;;;;5020375;28;20229;-61
2023/12/01 04:22:50;;;;;;;5.85;5.25;;;;;;;;;;5020461;28;20304;-61
2023/12/01 04:25:18;;;;;;;5.70;5.20;;;;;;;;;;5019989;28;20213;-61
2023/12/01 04:27:45;;;;;;;6.57;5.97;;;;;;;;;;5020051;28;20305;-61
2023/12/01 04:30:16;;;;;;;5.80;5.30;;;;;;;;;;5020293;28;20207;-61
2023/12/01 04:32:43;;;;;;;5.65;5.15;;;;;;;;;;5020235;28;20206;-61
2023/12/01 04:35:12;;;;;;;5.60;5.10;;;;;;;;;;5020073;28;20206;-61
2023/12/01 04:37:40;;;;;;;6.10;5.50;;;;;;;;;;5019313;28;20234;-61
2023/12/01 04:40:14;;;;;;;5.70;5.20;;;;;;;;;;5020155;28;20602;-61
2023/12/01 04:42:42;;;;;;;6.15;5.55;;;;;;;;;;5020044;28;20225;-61
2023/12/01 04:45:11;;;;;;;6.10;5.55;;;;;;;;;;5019753;28;20214;-61
2023/12/01 04:47:40;;;;;;;5.55;5.05;;;;;;;;;;5019665;28;20215;-61
2023/12/01 04:50:12;;;;;;;5.55;5.05;;;;;;;;;;5019898;28;20245;-61
2023/12/01 04:52:39;;;;;;;6.03;5.18;;;;;;;;;;5019315;28;20214;-61
2023/12/01 04:55:07;;;;;;;5.93;5.38;;;;;;;;;;5019768;28;20214;-61
2023/12/01 04:57:36;;;;;;;5.68;5.18;;;;;;;;;;5019430;28;20217;-61
2023/12/01 05:00:18;;;;;;;5.80;5.25;;;;;;;;;;5019698;28;20205;-61
2023/12/01 05:02:48;;;;;;;5.78;5.22;;;;;;;;;;5019386;28;20202;-61
2023/12/01 05:05:16;;;;;;;5.80;5.30;;;;;;;;;;5019749;28;20238;-61
2023/12/01 05:07:43;;;;;;;5.93;5.43;;;;;;;;;;5019116;28;20206;-61
2023/12/01 05:10:14;;;;;;;6.00;5.40;;;;;;;;;;5019355;28;20206;-61
2023/12/01 05:12:44;;;;;;;5.90;5.30;;;;;;;;;;5019303;28;20230;-61
2023/12/01 05:15:16;;;;;;;5.75;5.18;;;;;;;;;;5019387;28;20628;-61
2023/12/01 05:17:47;;;;;;;6.18;5.68;;;;;;;;;;5018977;28;20250;-61
2023/12/01 05:20:17;;;;;;;5.68;5.18;;;;;;;;;;5018410;28;20575;-61
2023/12/01 05:22:45;;;;;;;6.18;5.57;;;;;;;;;;5019253;28;20222;-61
2023/12/01 05:25:14;;;;;;;6.18;5.57;;;;;;;;;;5018314;28;20211;-61
2023/12/01 05:27:47;;;;;;;5.60;5.10;;;;;;;;;;5018362;28;20203;-61
2023/12/01 05:30:16;;;;;;;5.88;5.07;;;;;;;;;;5018700;28;20214;-61
2023/12/01 05:32:44;;;;;;;6.15;5.65;;;;;;;;;;5018164;28;20458;-61
2023/12/01 05:35:12;;;;;;;5.70;5.20;;;;;;;;;;5018195;28;20206;-61
2023/12/01 05:37:40;;;;;;;5.90;5.35;;;;;;;;;;5017534;28;20237;-61
2023/12/01 05:40:09;;;;;;;5.85;5.18;;;;;;;;;;5017992;28;20260;-61
2023/12/01 05:42:37;;;;;;;5.60;5.10;;;;;;;;;;5017440;28;20280;-61
2023/12/01 05:45:11;;;;;;;5.93;5.20;;;;;;;;;;5017792;28;20626;-61
2023/12/01 05:47:42;;;;;;;5.88;5.28;;;;;;;;;;5016989;28;20217;-61
2023/12/01 05:50:12;;;;;;;5.93;5.43;;;;;;;;;;5017338;28;20293;-61
2023/12/01 05:52:39;;;;;;;5.78;5.22;;;;;;;;;;5017602;28;20203;-61
2023/12/01 05:55:14;;;;;;;5.75;5.25;;;;;;;;;;5017988;28;20321;-61
2023/12/01 05:57:43;;;;;;;6.13;5.53;;;;;;;;;;5016572;28;20238;-61
2023/12/01 06:00:15;;;;;;;5.78;5.25;;;;;;;;;;5016337;28;20237;-61
2023/12/01 06:02:43;;;;;;;5.82;5.22;;;;;;;;;;5016596;28;20520;-61
2023/12/01 06:05:12;;;;;;;5.28;4.78;;;;;;;;;;5016080;28;20207;-61
2023/12/01 06:07:42;;;;;;;6.22;5.63;;;;;;;;;;5016642;28;20214;-61
2023/12/01 06:10:10;;;;;;;5.70;5.20;;;;;;;;;;5016843;28;20234;-61
2023/12/01 06:12:38;;;;;;;6.53;5.90;;;;;;;;;;5016242;28;20202;-61
2023/12/01 06:15:06;;;;;;;5.60;5.10;;;;;;;;;;5015866;28;20202;-61
2023/12/01 06:17:35;;;;;;;6.10;5.50;;;;;;;;;;5015631;28;20206;-61
2023/12/01 06:20:02;;;;;;;5.28;4.85;;;;;;;;;;5015300;28;20582;-61
2023/12/01 06:22:30;;;;;;;6.03;5.43;;;;;;;;;;5015711;28;20238;-61
2023/12/01 06:24:57;;;;;;;6.38;5.78;;;;;;;;;;5015966;28;20210;-61
2023/12/01 06:27:25;;;;;;;7.55;6.60;;;;;;;;;;5015694;28;20214;-61
2023/12/01 06:29:52;;;;;;;7.78;6.97;;;;;;;;;;5016640;28;20727;-61
2023/12/01 06:32:20;;;;;;;8.63;7.80;;;;;;;;;;5015582;28;20241;-61
2023/12/01 06:34:49;;;;;;;10.60;8.35;;;;;;;;;;5015370;28;20217;-61
2023/12/01 06:37:17;;;;;;;11.55;9.27;;;;;;;;;;5014593;28;20245;-61
2023/12/01 06:39:45;;;;;;;11.63;10.07;;;;;;;;;;5015326;28;20578;-61
2023/12/01 06:42:12;;;;;;;11.57;10.38;;;;;;;;;;5015513;28;20241;-61
2023/12/01 06:44:39;;;;;;;13.30;11.98;;;;;;;;;;5015186;28;20462;-61
2023/12/01 06:47:07;;;;;;;15.43;13.00;;;;;;;;;;5014625;28;20206;-61
2023/12/01 06:49:34;;;;;;;15.20;13.40;;;;;;;;;;5015659;28;20768;-61
2023/12/01 06:52:03;;;;;;;17.52;13.98;;;;;;;;;;5015460;28;20203;-61
2023/12/01 06:54:30;;;;;;;18.73;15.15;;;;;;;;;;5015875;28;20212;-61
2023/12/01 06:56:57;;;;;;;19.58;15.02;;;;;;;;;;5014552;28;20629;-61
2023/12/01 06:59:25;;;;;;;20.33;15.90;;;;;;;;;;5015085;28;20521;-61
2023/12/01 07:01:52;;;;;;;21.73;16.55;;;;;;;;;;5015772;28;20238;-61
2023/12/01 07:04:20;;;;;;;20.25;16.42;;;;;;;;;;5015143;28;20590;-61
2023/12/01 07:06:48;;;;;;;22.13;17.38;;;;;;;;;;5015390;28;20511;-61
2023/12/01 07:09:17;;;;;;;20.25;18.05;;;;;;;;;;5015099;28;20305;-61
2023/12/01 07:11:46;;;;;;;22.48;18.55;;;;;;;;;;5015409;28;20237;-61
2023/12/01 07:14:14;;;;;;;21.92;18.70;;;;;;;;;;5015350;28;20215;-61
2023/12/01 07:16:42;;;;;;;23.45;19.42;;;;;;;;;;5015483;28;20198;-61
2023/12/01 07:19:11;;;;;;;22.58;19.00;;;;;;;;;;5015268;28;20241;-61
2023/12/01 07:21:38;;;;;;;23.65;19.75;;;;;;;;;;5015865;28;20230;-61
2023/12/01 07:24:07;;;;;;;22.27;19.83;;;;;;;;;;5015602;28;20214;-61
2023/12/01 07:26:36;;;;;;;24.58;19.45;;;;;;;;;;5015785;28;20216;-61
2023/12/01 07:29:04;;;;;;;23.70;20.08;;;;;;;;;;5016550;28;20206;-61
2023/12/01 07:31:33;;;;;;;25.20;21.20;;;;;;;;;;5016300;28;20256;-61
2023/12/01 07:34:01;;;;;;;24.83;20.88;;;;;;;;;;5015873;28;20266;-61
2023/12/01 07:36:29;;;;;;;25.05;20.98;;;;;;;;;;5015337;28;20658;-61
2023/12/01 07:38:56;;;;;;;24.92;21.02;;;;;;;;;;5015713;28;20206;-61
2023/12/01 07:41:23;;;;;;;27.38;21.50;;;;;;;;;;5015484;28;20209;-61
2023/12/01 07:43:52;;;;;;;25.75;21.73;;;;;;;;;;5015718;28;20233;-61
2023/12/01 07:46:23;;;;;;;25.75;21.30;;;;;;;;;;5015409;28;20622;-61
2023/12/01 07:48:50;;;;;;;25.17;21.25;;;;;;;;;;5016737;28;20229;-61
2023/12/01 07:51:17;;;;;;;24.10;21.17;;;;;;;;;;5019311;28;20221;-61
2023/12/01 07:53:45;;;;;;;24.35;20.17;;;;;;;;;;5019222;28;20709;-61
2023/12/01 07:56:13;;;;;;;25.95;21.67;;;;;;;;;;5019109;28;20207;-61
2023/12/01 07:58:42;;;;;;;26.05;21.00;;;;;;;;;;5018880;28;20203;-61
2023/12/01 08:01:14;;;;;;;29.25;21.88;;;;;;;;;;5018601;28;20206;-61
2023/12/01 08:03:41;;;;;;;24.48;20.85;;;;;;;;;;5019441;28;20223;-61
2023/12/01 08:06:09;;;;;;;23.83;20.88;;;;;;;;;;5019600;28;20279;-61
2023/12/01 08:08:37;;;;;;;27.40;22.60;;;;;;;;;;5018853;28;20304;-61
2023/12/01 08:11:05;;;;;;;26.45;21.33;;;;;;;;;;5018450;28;20206;-61
2023/12/01 08:13:32;;;;;;;22.90;20.42;;;;;;;;;;5018893;28;20206;-61
2023/12/01 08:16:00;;;;;;;23.35;20.75;;;;;;;;;;5019217;28;20210;-61
2023/12/01 08:18:29;;;;;;;24.70;21.83;;;;;;;;;;5018287;28;20268;-61
2023/12/01 08:20:56;;;;;;;25.02;21.10;;;;;;;;;;5018232;28;20213;-61
2023/12/01 08:23:23;;;;;;;25.08;20.58;;;;;;;;;;5018961;28;20241;-61
2023/12/01 08:25:52;;;;;;;22.52;20.13;;;;;;;;;;5018938;28;20617;-61
2023/12/01 08:28:20;;;;;;;23.60;20.02;;;;;;;;;;5019357;28;20503;-61
2023/12/01 08:30:47;;;;;;;26.40;20.52;;;;;;;;;;5019074;28;20206;-61
2023/12/01 08:33:15;;;;;;;26.35;21.52;;;;;;;;;;5018689;28;20203;-61
2023/12/01 08:35:43;;;;;;;24.02;20.20;;;;;;;;;;5018889;28;20213;-61
2023/12/01 08:38:11;;;;;;;21.98;19.70;;;;;;;;;;4984059;28;20244;-61
2023/12/01 08:40:38;;;;;;;23.80;20.13;;;;;;;;;;4980004;28;20208;-61
2023/12/01 08:43:06;;;;;;;21.60;19.15;;;;;;;;;;4979040;28;20231;-61
2023/12/01 08:45:34;;;;;;;24.00;18.63;;;;;;;;;;4978875;28;20208;-61
2023/12/01 08:48:01;;;;;;;23.58;19.58;;;;;;;;;;4979915;28;20302;-61
2023/12/01 08:50:29;;;;;;;21.42;19.10;;;;;;;;;;4979383;28;20208;-61
2023/12/01 08:52:57;;;;;;;21.98;19.45;;;;;;;;;;4978938;28;20204;-61
2023/12/01 08:55:25;;;;;;;21.67;19.20;;;;;;;;;;4978783;28;20508;-61
2023/12/01 08:57:52;;;;;;;22.25;19.20;;;;;;;;;;4978686;28;20207;-61
2023/12/01 09:00:21;;;;;;;23.38;19.17;;;;;;;;;;4978690;28;20215;-61
2023/12/01 09:02:50;;;;;;;20.70;18.17;;;;;;;;;;4978770;28;20291;-61
2023/12/01 09:05:18;;;;;;;22.17;18.25;;;;;;;;;;4978923;28;20207;-61
2023/12/01 09:07:48;;;;;;;20.20;18.15;;;;;;;;;;4978144;28;20305;-61
2023/12/01 09:10:19;;;;;;;19.45;17.35;;;;;;;;;;4977943;28;20203;-61
2023/12/01 09:12:47;;;;;;;21.40;16.95;;;;;;;;;;4979418;28;20298;-61
2023/12/01 09:15:14;;;;;;;19.60;17.50;;;;;;;;;;4978785;28;20215;-61
2023/12/01 09:17:42;;;;;;;19.10;16.33;;;;;;;;;;4978994;28;20497;-61
2023/12/01 09:20:10;;;;;;;19.35;17.23;;;;;;;;;;4979092;28;20211;-61
2023/12/01 09:22:38;;;;;;;19.90;17.58;;;;;;;;;;4978287;28;20235;-61
2023/12/01 09:25:06;;;;;;;20.45;16.67;;;;;;;;;;4978437;28;20207;-61
2023/12/01 09:27:35;;;;;;;18.58;15.98;;;;;;;;;;4978193;28;20216;-61
2023/12/01 09:30:02;;;;;;;17.08;15.27;;;;;;;;;;4978011;28;20207;-61
2023/12/01 09:32:30;;;;;;;18.95;16.67;;;;;;;;;;4978693;28;20203;-61
2023/12/01 09:34:57;;;;;;;17.63;15.45;;;;;;;;;;4978359;28;20219;-61
2023/12/01 09:37:25;;;;;;;17.45;15.70;;;;;;;;;;4978068;28;20242;-61
2023/12/01 09:39:52;;;;;;;19.33;17.08;;;;;;;;;;4978201;28;20208;-61
2023/12/01 09:42:22;;;;;;;18.17;16.25;;;;;;;;;;4977421;28;20627;-61
2023/12/01 09:44:52;;;;;;;17.20;15.40;;;;;;;;;;4978174;28;20289;-61
2023/12/01 09:47:22;;;;;;;17.20;14.95;;;;;;;;;;4977445;28;20211;-61
2023/12/01 09:49:50;;;;;;;16.13;14.43;;;;;;;;;;4977919;28;20219;-61
2023/12/01 09:52:17;;;;;;;16.85;14.80;;;;;;;;;;4978073;28;20200;-61
2023/12/01 09:54:45;;;;;;;16.30;13.93;;;;;;;;;;4977811;28;20219;-61
2023/12/01 09:57:13;;;;;;;16.02;13.45;;;;;;;;;;4977533;28;20207;-61
2023/12/01 09:59:41;;;;;;;17.27;13.93;;;;;;;;;;4977490;28;20207;-61
2023/12/01 10:02:10;;;;;;;15.95;13.52;;;;;;;;;;4977129;28;20203;-61
2023/12/01 10:04:38;;;;;;;16.83;13.65;;;;;;;;;;4977493;28;20572;-61
2023/12/01 10:07:05;;;;;;;15.30;13.70;;;;;;;;;;4977011;28;20569;-61
2023/12/01 10:09:33;;;;;;;15.43;12.85;;;;;;;;;;4976959;28;20339;-61
2023/12/01 10:12:08;;;;;;;16.17;13.65;;;;;;;;;;4976431;28;20289;-61
2023/12/01 10:14:36;;;;;;;13.52;12.18;;;;;;;;;;4977065;28;20211;-61
2023/12/01 10:17:04;;;;;;;15.13;13.05;;;;;;;;;;4976688;28;20208;-61
2023/12/01 10:19:44;;;;;;;13.50;12.07;;;;;;;;;;4976510;28;20658;-61
2023/12/01 10:22:13;;;;;;;14.32;11.93;;;;;;;;;;4976809;28;20214;-61
2023/12/01 10:24:40;;;;;;;14.10;11.77;;;;;;;;;;4976653;28;20208;-61
2023/12/01 10:27:08;;;;;;;13.73;12.15;;;;;;;;;;4976131;28;20596;-61
2023/12/01 10:29:39;;;;;;;14.00;12.50;;;;;;;;;;4976883;28;20208;-61
2023/12/01 10:32:07;;;;;;;13.40;12.00;;;;;;;;;;4976304;28;20211;-61
2023/12/01 10:34:37;;;;;;;13.02;11.60;;;;;;;;;;4975986;28;20211;-61
2023/12/01 10:37:04;;;;;;;12.85;10.90;;;;;;;;;;4976367;28;20266;-61
2023/12/01 10:39:31;;;;;;;12.77;11.23;;;;;;;;;;4976581;28;20619;-61
2023/12/01 10:41:59;;;;;;;11.98;10.70;;;;;;;;;;4976174;28;20207;-61
2023/12/01 10:44:28;;;;;;;14.30;11.63;;;;;;;;;;4975613;28;20223;-61
2023/12/01 10:46:55;;;;;;;12.98;10.88;;;;;;;;;;4975840;28;20608;-61
2023/12/01 10:49:23;;;;;;;13.27;11.18;;;;;;;;;;4976345;28;20219;-61
2023/12/01 10:51:53;;;;;;;12.52;11.15;;;;;;;;;;4975824;28;20226;-61
2023/12/01 10:54:25;;;;;;;12.75;11.15;;;;;;;;;;4977016;28;20239;-61
2023/12/01 10:56:57;;;;;;;12.35;10.48;;;;;;;;;;4976535;28;20211;-61
2023/12/01 10:59:27;;;;;;;11.30;9.60;;;;;;;;;;4976105;28;20204;-61
2023/12/01 11:01:54;;;;;;;11.27;9.93;;;;;;;;;;4976260;28;20235;-61
2023/12/01 11:04:25;;;;;;;12.32;10.10;;;;;;;;;;4976769;28;20264;-61
2023/12/01 11:07:01;;;;;;;11.27;10.05;;;;;;;;;;4976970;28;20208;-61
2023/12/01 11:09:33;;;;;;;11.45;9.75;;;;;;;;;;4976196;28;20200;-61
2023/12/01 11:12:05;;;;;;;11.18;9.82;;;;;;;;;;4976547;28;20289;-61
2023/12/01 11:14:38;;;;;;;11.77;9.82;;;;;;;;;;4975098;28;20204;-61
2023/12/01 11:17:06;;;;;;;11.50;9.57;;;;;;;;;;4975471;28;20499;-61
2023/12/01 11:19:35;;;;;;;11.73;9.48;;;;;;;;;;4976090;28;20745;-61
2023/12/01 11:22:24;;;;;;;10.90;9.52;;;;;;;;;;4976365;28;20593;-61
2023/12/01 11:24:51;;;;;;;10.45;9.30;;;;;;;;;;4979596;28;20250;-61
2023/12/01 11:27:19;;;;;;;10.05;9.02;;;;;;;;;;4979396;28;20496;-61
2023/12/01 11:29:58;;;;;;;10.32;9.25;;;;;;;;;;4979743;28;20206;-61
2023/12/01 11:32:32;;;;;;;9.85;8.85;;;;;;;;;;4979504;28;20219;-61
2023/12/01 11:35:07;;;;;;;11.00;9.05;;;;;;;;;;4979293;28;20207;-61
2023/12/01 11:37:52;;;;;;;9.52;8.52;;;;;;;;;;4978658;28;20234;-61
2023/12/01 11:40:22;;;;;;;10.80;8.82;;;;;;;;;;4980087;28;20211;-61
2023/12/01 11:42:49;;;;;;;10.15;8.80;;;;;;;;;;4979394;28;20231;-61
2023/12/01 11:45:16;;;;;;;10.48;8.88;;;;;;;;;;4979004;28;20229;-61
2023/12/01 11:47:43;;;;;;;9.93;8.30;;;;;;;;;;4979525;28;20545;-61
2023/12/01 11:50:12;;;;;;;10.85;8.40;;;;;;;;;;4978969;28;20210;-61
2023/12/01 11:52:39;;;;;;;10.05;8.40;;;;;;;;;;4978238;28;20868;-61
2023/12/01 11:55:16;;;;;;;10.13;8.27;;;;;;;;;;4978429;28;20580;-61
2023/12/01 11:57:53;;;;;;;10.13;7.97;;;;;;;;;;4979221;28;20239;-61
2023/12/01 12:00:20;;;;;;;9.85;8.13;;;;;;;;;;4978500;28;20301;-61
2023/12/01 12:02:48;;;;;;;10.48;8.30;;;;;;;;;;4978105;28;20223;-61
2023/12/01 12:05:15;;;;;;;9.30;7.72;;;;;;;;;;4978597;28;20214;-61
2023/12/01 12:07:43;;;;;;;9.77;8.00;;;;;;;;;;4978452;28;20218;-61
2023/12/01 12:10:14;;;;;;;13.63;8.55;;;;;;;;;;4978970;28;20208;-61
2023/12/01 12:12:42;;;;;;;13.57;8.20;;;;;;;;;;4978518;28;20222;-61
2023/12/01 12:15:13;;;;;;;10.20;7.43;;;;;;;;;;4978011;28;20215;-61
2023/12/01 12:17:41;;;;;;;13.07;7.78;;;;;;;;;;4977286;28;20211;-61
2023/12/01 12:20:11;;;;;;;9.82;7.40;;;;;;;;;;4976464;28;20222;-61
2023/12/01 12:22:40;;;;;;;10.38;7.20;;;;;;;;;;4978109;28;20214;-61
2023/12/01 12:25:10;;;;;;;12.40;7.20;;;;;;;;;;4977626;28;20286;-61
2023/12/01 12:27:39;;;;;;;11.38;7.35;;;;;;;;;;4976787;28;20208;-61
2023/12/01 12:30:07;;;;;;;10.40;7.35;;;;;;;;;;4977365;28;20239;-61
2023/12/01 12:32:36;;;;;;;11.70;7.72;;;;;;;;;;4977719;28;20207;-61
2023/12/01 12:35:03;;;;;;;9.13;6.78;;;;;;;;;;4977359;28;20196;-61
2023/12/01 12:37:31;;;;;;;9.40;7.30;;;;;;;;;;4977976;28;20646;-61
2023/12/01 12:39:58;;;;;;;10.02;7.75;;;;;;;;;;4977874;28;20208;-61
2023/12/01 12:42:26;;;;;;;9.27;7.00;;;;;;;;;;4977538;28;20200;-61
2023/12/01 12:44:54;;;;;;;8.23;6.85;;;;;;;;;;4978101;28;20234;-61
2023/12/01 12:47:22;;;;;;;9.38;6.90;;;;;;;;;;4978145;28;20219;-61
2023/12/01 12:49:54;;;;;;;8.20;6.70;;;;;;;;;;4977804;28;20270;-61
2023/12/01 12:52:21;;;;;;;8.45;6.68;;;;;;;;;;4977047;28;20222;-61
2023/12/01 12:54:48;;;;;;;8.35;6.75;;;;;;;;;;4978028;28;20208;-61
2023/12/01 12:57:16;;;;;;;10.13;6.85;;;;;;;;;;4977067;28;20608;-61
2023/12/01 12:59:43;;;;;;;8.82;6.38;;;;;;;;;;4976969;28;20470;-61
2023/12/01 13:02:12;;;;;;;8.15;6.78;;;;;;;;;;4978136;28;20210;-61
2023/12/01 13:04:40;;;;;;;8.32;6.05;;;;;;;;;;4977747;28;20255;-61
2023/12/01 13:07:08;;;;;;;9.98;6.93;;;;;;;;;;4977170;28;20203;-61
2023/12/01 13:09:37;;;;;;;7.80;6.22;;;;;;;;;;4977885;28;20208;-61
2023/12/01 13:12:05;;;;;;;9.55;6.35;;;;;;;;;;4978097;28;20625;-61
2023/12/01 13:14:32;;;;;;;8.55;6.40;;;;;;;;;;4977172;28;20520;-61
2023/12/01 13:17:00;;;;;;;8.52;6.57;;;;;;;;;;4978386;28;20281;-61
2023/12/01 13:19:27;;;;;;;8.70;7.03;;;;;;;;;;4976621;28;20199;-61
2023/12/01 13:21:54;;;;;;;7.60;6.00;;;;;;;;;;4977617;28;20208;-61
2023/12/01 13:24:23;;;;;;;8.57;6.50;;;;;;;;;;4976604;28;20702;-61
2023/12/01 13:26:51;;;;;;;7.38;6.15;;;;;;;;;;4976159;28;20212;-61
2023/12/01 13:29:18;;;;;;;9.15;6.40;;;;;;;;;;4976742;28;20601;-61
2023/12/01 13:31:46;;;;;;;7.40;6.30;;;;;;;;;;4977546;28;20297;-61
2023/12/01 13:34:13;;;;;;;9.35;6.47;;;;;;;;;;4976802;28;20211;-60
2023/12/01 13:36:41;;;;;;;6.55;5.68;;;;;;;;;;4976879;28;20254;-60
2023/12/01 13:39:09;;;;;;;7.97;6.78;;;;;;;;;;4976866;28;20282;-60
2023/12/01 13:41:37;;;;;;;8.23;6.18;;;;;;;;;;4975821;28;20603;-61
2023/12/01 13:44:05;;;;;;;7.47;6.65;;;;;;;;;;4976442;28;20227;-61
2023/12/01 13:46:32;;;;;;;7.10;6.35;;;;;;;;;;4976702;28;20207;-61
2023/12/01 13:49:00;;;;;;;7.03;6.32;;;;;;;;;;4976574;28;20208;-61
2023/12/01 13:51:27;;;;;;;6.93;5.53;;;;;;;;;;4975894;28;20984;-61
2023/12/01 13:53:55;;;;;;;7.63;5.82;;;;;;;;;;4976041;28;20195;-61
2023/12/01 13:56:22;;;;;;;7.45;6.63;;;;;;;;;;4976789;28;20297;-61
2023/12/01 13:58:51;;;;;;;6.97;5.72;;;;;;;;;;4976738;28;20243;-61
2023/12/01 14:01:18;;;;;;;7.75;6.05;;;;;;;;;;4976614;28;20215;-61
2023/12/01 14:03:46;;;;;;;7.93;6.00;;;;;;;;;;4976138;28;20235;-61
2023/12/01 14:06:13;;;;;;;7.30;5.95;;;;;;;;;;4976791;28;20742;-61
2023/12/01 14:08:41;;;;;;;6.60;5.65;;;;;;;;;;4976926;28;20219;-61
2023/12/01 14:11:08;;;;;;;6.13;5.22;;;;;;;;;;4976160;28;20215;-61
2023/12/01 14:13:35;;;;;;;7.20;5.95;;;;;;;;;;4976149;28;20212;-61
2023/12/01 14:16:05;;;;;;;6.40;5.38;;;;;;;;;;4976255;28;20226;-61
2023/12/01 14:18:33;;;;;;;6.55;5.65;;;;;;;;;;4976615;28;20258;-61
2023/12/01 14:21:00;;;;;;;7.72;6.90;;;;;;;;;;4976236;28;20215;-60
2023/12/01 14:23:27;;;;;;;6.15;5.55;;;;;;;;;;4976359;28;20216;-60
2023/12/01 14:25:55;;;;;;;7.40;5.97;;;;;;;;;;4976243;28;20220;-60
2023/12/01 14:28:22;;;;;;;6.57;5.68;;;;;;;;;;4975755;28;20211;-61
2023/12/01 14:30:51;;;;;;;6.90;5.50;;;;;;;;;;4975863;28;20230;-61
2023/12/01 14:33:19;;;;;;;6.43;5.32;;;;;;;;;;4975892;28;20204;-61
2023/12/01 14:35:47;;;;;;;7.50;6.32;;;;;;;;;;4976452;28;20215;-61
2023/12/01 14:38:14;;;;;;;7.50;6.00;;;;;;;;;;4974583;28;20297;-61
2023/12/01 14:40:42;;;;;;;6.63;5.93;;;;;;;;;;4975892;28;20223;-61